createdAt,value
2018-05-09T00:01:04.998Z,8.10
2018-05-09T00:03:32.461Z,8.07
2018-05-09T00:05:59.912Z,8.07
2018-05-09T00:08:27.380Z,7.77
2018-05-09T00:10:54.839Z,9.43
2018-05-09T00:13:22.286Z,8.40
2018-05-09T00:15:49.747Z,7.47
2018-05-09T00:18:17.186Z,7.67
2018-05-09T00:20:44.674Z,8.90
2018-05-09T00:23:12.155Z,8.00
2018-05-09T00:25:39.606Z,9.40
2018-05-09T00:28:07.067Z,6.80
2018-05-09T00:30:34.552Z,7.80
2018-05-09T00:33:02.036Z,7.30
2018-05-09T00:35:29.480Z,7.47
2018-05-09T00:37:56.967Z,8.30
2018-05-09T00:40:24.418Z,9.37
2018-05-09T00:42:51.862Z,8.60
2018-05-09T00:45:19.335Z,11.33
2018-05-09T00:47:46.807Z,7.73
2018-05-09T00:50:14.280Z,7.87
2018-05-09T00:52:41.733Z,7.30
2018-05-09T00:55:09.976Z,7.30
2018-05-09T00:57:37.457Z,7.17
2018-05-09T01:00:04.951Z,6.63
2018-05-09T01:02:32.419Z,7.70
2018-05-09T01:04:59.867Z,7.03
2018-05-09T01:07:28.294Z,6.60
2018-05-09T01:09:55.916Z,6.10
2018-05-09T01:12:23.361Z,7.13
2018-05-09T01:14:50.810Z,6.90
2018-05-09T01:17:18.805Z,5.47
2018-05-09T01:19:46.271Z,6.70
2018-05-09T01:22:13.742Z,6.63
2018-05-09T01:24:41.206Z,7.27
2018-05-09T01:27:08.680Z,7.33
2018-05-09T01:29:36.116Z,7.13
2018-05-09T01:32:03.588Z,6.60
2018-05-09T01:34:31.069Z,6.60
2018-05-09T01:36:58.542Z,6.47
2018-05-09T01:39:26.014Z,6.70
2018-05-09T01:41:53.475Z,7.20
2018-05-09T01:44:20.920Z,8.47
2018-05-09T01:46:48.415Z,6.40
2018-05-09T01:49:15.882Z,7.03
2018-05-09T01:51:43.332Z,7.63
2018-05-09T01:54:10.797Z,10.93
2018-05-09T01:56:38.274Z,11.77
2018-05-09T01:59:05.736Z,12.30
2018-05-09T02:01:33.223Z,11.87
2018-05-09T02:04:00.690Z,11.80
2018-05-09T02:06:28.165Z,9.93
2018-05-09T02:08:55.651Z,13.13
2018-05-09T02:11:23.121Z,11.27
2018-05-09T02:13:50.572Z,10.27
2018-05-09T02:16:18.040Z,12.83
2018-05-09T02:18:45.490Z,12.63
2018-05-09T02:21:12.958Z,11.10
2018-05-09T02:23:40.456Z,10.30
2018-05-09T02:26:07.902Z,7.83
2018-05-09T02:28:35.357Z,8.47
2018-05-09T02:31:02.857Z,8.03
2018-05-09T02:33:30.296Z,7.63
2018-05-09T02:35:57.777Z,7.70
2018-05-09T02:38:25.246Z,6.90
2018-05-09T02:40:52.691Z,6.20
2018-05-09T02:43:20.146Z,7.13
2018-05-09T02:45:47.634Z,7.00
2018-05-09T02:48:15.095Z,6.77
2018-05-09T02:50:42.550Z,7.67
2018-05-09T02:53:10.001Z,7.87
2018-05-09T02:55:37.585Z,7.50
2018-05-09T02:58:05.029Z,6.90
2018-05-09T03:00:32.594Z,7.80
2018-05-09T03:03:00.077Z,10.27
2018-05-09T03:05:27.546Z,10.53
2018-05-09T03:07:55.004Z,10.43
2018-05-09T03:10:22.500Z,10.50
2018-05-09T03:12:50.070Z,11.63
2018-05-09T03:15:17.534Z,11.90
2018-05-09T03:17:45.097Z,11.50
2018-05-09T03:20:12.585Z,11.30
2018-05-09T03:22:40.152Z,11.47
2018-05-09T03:25:07.702Z,9.53
2018-05-09T03:27:35.185Z,10.27
2018-05-09T03:30:02.699Z,11.00
2018-05-09T03:32:30.143Z,9.07
2018-05-09T03:34:57.585Z,8.47
2018-05-09T03:37:25.128Z,9.70
2018-05-09T03:39:52.501Z,8.60
2018-05-09T03:42:19.933Z,8.03
2018-05-09T03:44:47.406Z,11.00
2018-05-09T03:47:14.858Z,13.30
2018-05-09T03:49:42.333Z,14.10
2018-05-09T03:52:09.791Z,14.13
2018-05-09T03:54:37.261Z,17.07
2018-05-09T03:57:04.763Z,12.87
2018-05-09T03:59:32.229Z,12.10
2018-05-09T04:02:11.545Z,12.63
2018-05-09T04:04:50.781Z,14.10
2018-05-09T04:07:29.970Z,13.70
2018-05-09T04:09:57.440Z,13.77
2018-05-09T04:12:24.904Z,13.33
2018-05-09T04:14:52.463Z,15.90
2018-05-09T04:17:19.898Z,11.93
2018-05-09T04:19:47.377Z,14.10
2018-05-09T04:22:14.852Z,15.00
2018-05-09T04:24:42.308Z,16.57
2018-05-09T04:27:09.778Z,14.00
2018-05-09T04:29:37.245Z,14.20
2018-05-09T04:32:04.762Z,14.80
2018-05-09T04:34:32.226Z,14.20
2018-05-09T04:36:59.685Z,14.73
2018-05-09T04:39:27.166Z,15.70
2018-05-09T04:41:54.701Z,14.73
2018-05-09T04:44:22.141Z,14.67
2018-05-09T04:46:49.645Z,16.30
2018-05-09T04:49:17.155Z,17.60
2018-05-09T04:51:44.668Z,20.60
2018-05-09T04:54:12.295Z,15.70
2018-05-09T04:56:39.749Z,18.90
2018-05-09T04:59:07.259Z,14.97
2018-05-09T05:01:34.803Z,15.50
2018-05-09T05:04:02.262Z,14.70
2018-05-09T05:06:29.798Z,19.00
2018-05-09T05:08:57.269Z,17.70
2018-05-09T05:11:24.726Z,19.00
2018-05-09T05:13:52.259Z,15.43
2018-05-09T05:16:19.824Z,15.00
2018-05-09T05:18:47.328Z,23.30
2018-05-09T05:21:14.961Z,16.57
2018-05-09T05:23:42.421Z,21.17
2018-05-09T05:26:09.894Z,16.83
2018-05-09T05:28:37.413Z,15.77
2018-05-09T05:31:04.887Z,18.03
2018-05-09T05:33:32.359Z,20.83
2018-05-09T05:36:00.821Z,20.00
2018-05-09T05:38:28.281Z,20.70
2018-05-09T05:40:55.799Z,17.40
2018-05-09T05:43:23.284Z,18.03
2018-05-09T05:45:50.766Z,17.87
2018-05-09T05:48:18.249Z,17.57
2018-05-09T05:50:45.720Z,20.20
2018-05-09T05:53:13.254Z,22.43
2018-05-09T05:55:40.791Z,19.70
2018-05-09T05:58:08.249Z,22.67
2018-05-09T06:00:35.713Z,23.13
2018-05-09T06:03:03.184Z,20.90
2018-05-09T06:05:30.675Z,23.13
2018-05-09T06:07:58.177Z,21.37
2018-05-09T06:10:25.643Z,20.70
2018-05-09T06:12:53.123Z,21.20
2018-05-09T06:15:20.591Z,20.30
2018-05-09T06:17:48.055Z,24.47
2018-05-09T06:20:15.555Z,18.00
2018-05-09T06:22:43.009Z,22.07
2018-05-09T06:25:10.504Z,25.77
2018-05-09T06:27:38.053Z,20.87
2018-05-09T06:30:05.512Z,22.43
2018-05-09T06:32:33.013Z,25.03
2018-05-09T06:35:00.485Z,18.80
2018-05-09T06:37:27.990Z,25.13
2018-05-09T06:39:55.445Z,18.13
2018-05-09T06:42:22.906Z,19.60
2018-05-09T06:44:50.479Z,21.93
2018-05-09T06:47:17.942Z,18.70
2018-05-09T06:49:45.398Z,22.10
2018-05-09T06:52:12.870Z,26.10
2018-05-09T06:54:40.332Z,21.07
2018-05-09T06:57:07.795Z,18.80
2018-05-09T06:59:35.274Z,24.27
2018-05-09T07:02:02.787Z,17.60
2018-05-09T07:04:30.254Z,19.80
2018-05-09T07:06:57.713Z,22.73
2018-05-09T07:09:25.200Z,27.27
2018-05-09T07:11:52.662Z,22.17
2018-05-09T07:14:20.192Z,21.83
2018-05-09T07:16:47.654Z,20.93
2018-05-09T07:19:15.110Z,19.10
2018-05-09T07:21:42.565Z,22.10
2018-05-09T07:24:10.038Z,20.30
2018-05-09T07:26:37.488Z,21.07
2018-05-09T07:29:04.958Z,18.93
2018-05-09T07:31:32.443Z,19.03
2018-05-09T07:33:59.910Z,21.63
2018-05-09T07:36:27.375Z,20.30
2018-05-09T07:38:54.905Z,17.50
2018-05-09T07:41:22.457Z,20.67
2018-05-09T07:43:50.024Z,18.47
2018-05-09T07:46:17.551Z,17.57
2018-05-09T07:48:45.160Z,20.90
2018-05-09T07:51:12.698Z,19.43
2018-05-09T07:53:40.176Z,17.87
2018-05-09T07:56:07.634Z,16.97
2018-05-09T07:58:35.134Z,26.80
2018-05-09T08:01:02.595Z,17.73
2018-05-09T08:03:30.135Z,16.77
2018-05-09T08:05:57.563Z,17.13
2018-05-09T08:08:25.034Z,17.67
2018-05-09T08:10:52.493Z,16.50
2018-05-09T08:13:19.977Z,12.53
2018-05-09T08:15:47.428Z,15.33
2018-05-09T08:18:14.896Z,18.87
2018-05-09T08:20:42.364Z,15.73
2018-05-09T08:23:09.821Z,20.90
2018-05-09T08:25:37.326Z,18.27
2018-05-09T08:28:04.794Z,14.10
2018-05-09T08:30:32.302Z,15.00
2018-05-09T08:32:59.921Z,11.73
2018-05-09T08:35:27.374Z,16.43
2018-05-09T08:37:54.825Z,15.93
2018-05-09T08:40:22.276Z,12.47
2018-05-09T08:42:49.758Z,19.30
2018-05-09T08:45:17.230Z,12.93
2018-05-09T08:47:44.687Z,19.77
2018-05-09T08:50:12.321Z,16.90
2018-05-09T08:52:39.770Z,18.80
2018-05-09T08:55:07.245Z,23.90
2018-05-09T08:57:34.738Z,18.40
2018-05-09T09:00:02.198Z,15.37
2018-05-09T09:02:29.658Z,13.70
2018-05-09T09:04:57.122Z,24.23
2018-05-09T09:07:24.820Z,17.20
2018-05-09T09:09:52.281Z,24.90
2018-05-09T09:12:19.794Z,16.03
2018-05-09T09:14:47.247Z,19.57
2018-05-09T09:17:14.721Z,18.30
2018-05-09T09:19:42.208Z,20.33
2018-05-09T09:22:09.678Z,21.80
2018-05-09T09:24:37.148Z,16.50
2018-05-09T09:27:04.674Z,19.03
2018-05-09T09:29:32.184Z,15.57
2018-05-09T09:31:59.650Z,14.23
2018-05-09T09:34:27.118Z,21.00
2018-05-09T09:36:54.662Z,24.23
2018-05-09T09:39:22.126Z,16.30
2018-05-09T09:41:49.600Z,16.67
2018-05-09T09:44:17.247Z,19.23
2018-05-09T09:46:44.755Z,17.17
2018-05-09T09:49:12.222Z,17.20
2018-05-09T09:51:39.689Z,17.87
2018-05-09T09:54:07.163Z,16.97
2018-05-09T09:56:34.641Z,18.17
2018-05-09T09:59:02.110Z,19.73
2018-05-09T10:01:29.733Z,21.27
2018-05-09T10:03:57.177Z,24.53
2018-05-09T10:06:24.651Z,24.63
2018-05-09T10:08:52.144Z,21.53
2018-05-09T10:11:19.617Z,21.37
2018-05-09T10:13:47.118Z,17.47
2018-05-09T10:16:14.627Z,17.90
2018-05-09T10:18:42.149Z,22.33
2018-05-09T10:21:09.641Z,17.40
2018-05-09T10:23:37.132Z,16.40
2018-05-09T10:26:04.598Z,21.40
2018-05-09T10:28:32.063Z,16.73
2018-05-09T10:30:59.631Z,17.30
2018-05-09T10:33:27.078Z,19.47
2018-05-09T10:35:54.557Z,18.57
2018-05-09T10:38:22.050Z,23.87
2018-05-09T10:40:49.554Z,24.13
2018-05-09T10:43:17.065Z,21.20
2018-05-09T10:45:44.575Z,22.37
2018-05-09T10:48:12.289Z,16.60
2018-05-09T10:50:39.772Z,20.20
2018-05-09T10:53:07.254Z,22.47
2018-05-09T10:55:34.733Z,23.80
2018-05-09T10:58:02.215Z,18.23
2018-05-09T11:00:29.709Z,21.40
2018-05-09T11:02:58.329Z,19.70
2018-05-09T11:05:25.821Z,20.70
2018-05-09T11:07:53.329Z,19.47
2018-05-09T11:10:20.803Z,25.80
2018-05-09T11:12:48.286Z,14.67
2018-05-09T11:15:15.834Z,17.83
2018-05-09T11:17:43.346Z,13.40
2018-05-09T11:20:10.831Z,17.83
2018-05-09T11:22:38.343Z,24.23
2018-05-09T11:25:05.830Z,17.40
2018-05-09T11:27:33.326Z,18.57
2018-05-09T11:30:00.823Z,21.30
2018-05-09T11:32:28.306Z,21.43
2018-05-09T11:34:55.790Z,17.07
2018-05-09T11:37:23.322Z,21.67
2018-05-09T11:39:51.643Z,22.27
2018-05-09T11:42:19.118Z,24.03
2018-05-09T11:44:46.620Z,18.47
2018-05-09T11:47:14.174Z,28.07
2018-05-09T11:49:41.672Z,15.93
2018-05-09T11:52:09.171Z,19.30
2018-05-09T11:54:36.675Z,19.73
2018-05-09T11:57:04.169Z,19.17
2018-05-09T11:59:31.670Z,16.57
2018-05-09T12:01:59.154Z,15.53
2018-05-09T12:04:26.770Z,15.70
2018-05-09T12:06:54.277Z,23.90
2018-05-09T12:09:21.762Z,18.40
2018-05-09T12:11:49.232Z,12.30
2018-05-09T12:27:12.871Z,16.70
2018-05-09T12:29:40.359Z,17.77
2018-05-09T12:32:07.869Z,21.40
2018-05-09T12:34:35.347Z,14.40
2018-05-09T12:37:02.883Z,23.53
2018-05-09T12:39:30.409Z,16.97
2018-05-09T12:41:57.922Z,22.77
2018-05-09T12:44:25.386Z,15.67
2018-05-09T12:46:52.896Z,21.10
2018-05-09T12:49:20.388Z,9.70
2018-05-09T12:51:47.891Z,18.93
2018-05-09T12:54:15.379Z,24.97
2018-05-09T12:56:43.333Z,19.80
2018-05-09T12:59:10.862Z,13.30
2018-05-09T13:01:38.367Z,17.53
2018-05-09T13:04:05.830Z,11.83
2018-05-09T13:06:33.337Z,13.13
2018-05-09T13:09:00.816Z,17.93
2018-05-09T13:11:28.311Z,22.17
2018-05-09T13:13:55.787Z,14.23
2018-05-09T13:16:23.259Z,13.97
2018-05-09T13:18:52.068Z,17.23
2018-05-09T13:21:19.550Z,13.60
2018-05-09T13:23:47.032Z,16.90
2018-05-09T13:26:14.567Z,19.23
2018-05-09T13:28:42.072Z,11.87
2018-05-09T13:31:09.568Z,19.20
2018-05-09T13:33:37.029Z,11.83
2018-05-09T13:36:04.516Z,15.33
2018-05-09T13:38:32.109Z,13.33
2018-05-09T13:40:59.607Z,14.93
2018-05-09T13:43:27.099Z,18.40
2018-05-09T13:45:54.609Z,12.47
2018-05-09T13:48:22.121Z,16.83
2018-05-09T13:50:49.601Z,9.50
2018-05-09T13:53:17.066Z,7.67
2018-05-09T13:55:44.625Z,11.53
2018-05-09T13:58:12.141Z,6.77
2018-05-09T14:00:39.605Z,11.83
2018-05-09T14:03:07.117Z,8.97
2018-05-09T14:05:34.632Z,10.30
2018-05-09T14:08:02.104Z,11.90
2018-05-09T14:10:29.581Z,16.37
2018-05-09T14:12:57.097Z,17.60
2018-05-09T14:15:24.720Z,16.53
2018-05-09T14:17:52.151Z,24.87
2018-05-09T14:20:19.641Z,24.30
2018-05-09T14:22:47.203Z,16.87
2018-05-09T14:25:15.159Z,16.80
2018-05-09T14:27:42.562Z,23.60
2018-05-09T14:30:10.077Z,13.20
2018-05-09T14:32:37.563Z,19.83
2018-05-09T14:35:05.050Z,13.80
2018-05-09T14:37:32.589Z,10.83
2018-05-09T14:40:00.066Z,15.13
2018-05-09T14:42:27.599Z,18.13
2018-05-09T14:44:55.088Z,17.77
2018-05-09T14:47:22.578Z,22.97
2018-05-09T14:49:50.076Z,17.93
2018-05-09T14:52:17.577Z,16.43
2018-05-09T14:54:45.070Z,25.20
2018-05-09T14:57:12.612Z,16.33
2018-05-09T14:59:40.101Z,15.37
2018-05-09T15:02:07.578Z,16.90
2018-05-09T15:04:35.115Z,16.50
2018-05-09T15:07:02.616Z,14.27
2018-05-09T15:09:30.101Z,18.77
2018-05-09T15:11:57.635Z,17.30
2018-05-09T15:14:25.134Z,13.40
2018-05-09T15:16:52.626Z,21.93
2018-05-09T15:19:20.106Z,20.57
2018-05-09T15:21:47.567Z,11.33
2018-05-09T15:24:15.062Z,14.23
2018-05-09T15:26:42.738Z,21.90
2018-05-09T15:29:10.266Z,13.23
2018-05-09T15:31:37.730Z,11.53
2018-05-09T15:34:05.239Z,30.73
2018-05-09T15:36:32.727Z,14.57
2018-05-09T15:39:00.319Z,14.10
2018-05-09T15:41:27.725Z,20.03
2018-05-09T15:43:55.197Z,14.47
2018-05-09T15:46:22.702Z,12.30
2018-05-09T15:48:50.174Z,17.87
2018-05-09T15:51:17.653Z,17.80
2018-05-09T15:53:45.142Z,15.53
2018-05-09T15:56:12.631Z,8.80
2018-05-09T15:58:40.134Z,11.30
2018-05-09T16:01:07.617Z,21.47
2018-05-09T16:03:35.705Z,17.33
2018-05-09T16:06:03.349Z,17.87
2018-05-09T16:08:30.826Z,20.63
2018-05-09T16:10:58.322Z,14.87
2018-05-09T16:13:25.811Z,23.13
2018-05-09T16:15:53.286Z,13.43
2018-05-09T16:18:20.750Z,8.93
2018-05-09T16:20:48.239Z,12.03
2018-05-09T16:23:15.722Z,14.60
2018-05-09T16:25:43.214Z,15.40
2018-05-09T16:28:10.705Z,12.03
2018-05-09T16:30:38.200Z,13.23
2018-05-09T16:33:05.734Z,10.93
2018-05-09T16:35:33.246Z,17.53
2018-05-09T16:38:00.721Z,21.40
2018-05-09T16:40:28.209Z,12.13
2018-05-09T16:42:56.370Z,14.43
2018-05-09T16:45:23.855Z,14.53
2018-05-09T16:47:51.390Z,22.23
2018-05-09T16:50:18.889Z,18.70
2018-05-09T16:52:46.406Z,16.60
2018-05-09T16:55:13.899Z,24.40
2018-05-09T16:57:41.395Z,26.03
2018-05-09T17:00:08.864Z,14.40
2018-05-09T17:02:36.370Z,25.30
2018-05-09T17:05:03.853Z,16.87
2018-05-09T17:07:31.347Z,26.23
2018-05-09T17:09:58.856Z,26.20
2018-05-09T17:12:26.329Z,25.10
2018-05-09T17:14:53.810Z,27.77
2018-05-09T17:17:21.291Z,32.53
2018-05-09T17:19:49.083Z,22.83
2018-05-09T17:22:28.393Z,24.93
2018-05-09T17:24:55.886Z,32.63
2018-05-09T17:27:23.367Z,24.23
2018-05-09T17:29:50.856Z,22.63
2018-05-09T17:32:18.346Z,27.57
2018-05-09T17:34:45.848Z,23.87
2018-05-09T17:37:13.340Z,24.23
2018-05-09T17:39:40.816Z,30.07
2018-05-09T17:42:08.305Z,20.47
2018-05-09T17:44:35.841Z,37.00
2018-05-09T17:47:03.362Z,27.00
2018-05-09T17:49:30.852Z,26.13
2018-05-09T17:51:58.362Z,30.37
2018-05-09T17:54:25.861Z,22.47
2018-05-09T17:56:53.568Z,25.93
2018-05-09T17:59:21.069Z,26.23
2018-05-09T18:01:48.544Z,27.77
2018-05-09T18:04:16.068Z,26.97
2018-05-09T18:06:44.906Z,31.70
2018-05-09T18:09:12.524Z,20.37
2018-05-09T18:11:40.072Z,23.57
2018-05-09T18:14:07.565Z,32.90
2018-05-09T18:16:35.048Z,28.07
2018-05-09T18:19:02.547Z,23.13
2018-05-09T18:21:30.038Z,29.17
2018-05-09T18:23:57.549Z,27.87
2018-05-09T18:26:25.129Z,24.90
2018-05-09T18:28:52.627Z,24.57
2018-05-09T18:31:20.435Z,25.67
2018-05-09T18:33:47.987Z,25.77
2018-05-09T18:36:15.488Z,22.60
2018-05-09T18:38:42.976Z,31.97
2018-05-09T18:41:10.490Z,24.33
2018-05-09T18:43:38.000Z,34.70
2018-05-09T18:46:05.498Z,28.73
2018-05-09T18:48:33.012Z,27.17
2018-05-09T18:51:00.517Z,21.30
2018-05-09T18:53:27.997Z,31.13
2018-05-09T18:55:55.501Z,24.80
2018-05-09T18:58:23.073Z,28.17
2018-05-09T19:00:50.742Z,26.30
2018-05-09T19:03:18.240Z,28.87
2018-05-09T19:05:47.191Z,31.63
2018-05-09T19:08:15.182Z,28.73
2018-05-09T19:10:42.704Z,30.27
2018-05-09T19:13:10.218Z,33.90
2018-05-09T19:15:37.834Z,30.27
2018-05-09T19:31:04.493Z,24.53
2018-05-09T19:33:32.895Z,24.83
2018-05-09T19:36:00.411Z,31.17
2018-05-09T19:38:27.909Z,33.50
2018-05-09T19:40:55.436Z,41.27
2018-05-09T19:43:22.975Z,27.67
2018-05-09T19:45:50.473Z,30.00
2018-05-09T19:48:18.015Z,39.70
2018-05-09T19:50:45.559Z,21.47
2018-05-09T19:53:13.044Z,25.80
2018-05-09T19:55:40.513Z,34.73
2018-05-09T19:58:08.027Z,25.07
2018-05-09T20:00:35.662Z,21.37
2018-05-09T20:03:03.359Z,18.73
2018-05-09T20:05:30.917Z,30.97
2018-05-09T20:07:58.414Z,23.30
2018-05-09T20:10:26.169Z,30.33
2018-05-09T20:12:53.888Z,23.63
2018-05-09T20:15:21.380Z,25.73
2018-05-09T20:17:48.872Z,23.80
2018-05-09T20:20:16.511Z,29.70
2018-05-09T20:22:44.000Z,26.13
2018-05-09T20:25:11.499Z,30.13
2018-05-09T20:27:39.005Z,26.50
2018-05-09T20:30:11.965Z,34.60
2018-05-09T20:32:39.718Z,28.83
2018-05-09T20:35:07.515Z,26.60
2018-05-09T20:37:34.991Z,23.73
2018-05-09T20:40:02.587Z,27.70
2018-05-09T20:42:30.153Z,27.33
2018-05-09T20:44:58.721Z,22.63
2018-05-09T20:47:26.222Z,26.13
2018-05-09T20:49:53.759Z,35.13
2018-05-09T20:52:21.270Z,32.93
2018-05-09T20:54:48.775Z,27.73
2018-05-09T20:57:16.325Z,29.90
2018-05-09T20:59:43.858Z,30.40
2018-05-09T21:02:11.509Z,25.87
2018-05-09T21:04:39.031Z,29.50
2018-05-09T21:07:06.553Z,27.07
2018-05-09T21:09:34.046Z,27.90
2018-05-09T21:12:09.371Z,34.13
2018-05-09T21:14:36.978Z,36.20
2018-05-09T21:17:04.436Z,38.80
2018-05-09T21:19:31.942Z,29.83
2018-05-09T21:21:59.468Z,24.03
2018-05-09T21:24:26.987Z,35.27
2018-05-09T21:26:54.543Z,38.40
2018-05-09T21:29:22.004Z,36.13
2018-05-09T21:31:49.485Z,38.40
2018-05-09T21:34:17.926Z,25.53
2018-05-09T21:36:45.529Z,37.37
2018-05-09T21:39:13.097Z,36.40
2018-05-09T21:41:40.619Z,27.53
2018-05-09T21:44:08.125Z,39.43
2018-05-09T21:46:35.657Z,37.43
2018-05-09T21:49:03.130Z,32.70
2018-05-09T21:51:30.609Z,35.23
2018-05-09T21:53:58.089Z,34.30
2018-05-09T21:56:25.570Z,38.97
2018-05-09T21:58:53.058Z,41.37
2018-05-09T22:01:23.447Z,47.30
2018-05-09T22:03:50.979Z,33.33
2018-05-09T22:06:18.477Z,33.00
2018-05-09T22:08:45.957Z,36.07
2018-05-09T22:11:13.477Z,29.63
2018-05-09T22:13:40.963Z,37.03
2018-05-09T22:16:08.485Z,47.17
2018-05-09T22:18:35.987Z,34.17
2018-05-09T22:21:03.488Z,35.37
2018-05-09T22:23:30.967Z,34.37
2018-05-09T22:25:58.611Z,30.47
2018-05-09T22:28:27.960Z,37.20
2018-05-09T22:30:55.495Z,45.80
2018-05-09T22:33:23.022Z,40.50
2018-05-09T22:35:50.507Z,37.23
2018-05-09T22:38:18.000Z,33.20
2018-05-09T22:40:45.500Z,35.70
2018-05-09T22:43:12.969Z,34.10
2018-05-09T22:45:40.426Z,45.33
2018-05-09T22:48:08.299Z,39.47
2018-05-09T22:50:35.789Z,31.83
2018-05-09T22:53:03.291Z,44.17
2018-05-09T22:55:30.779Z,33.70
2018-05-09T22:57:58.241Z,44.60
2018-05-09T23:00:26.731Z,33.97
2018-05-09T23:02:54.193Z,37.90
2018-05-09T23:05:21.675Z,46.00
2018-05-09T23:07:49.156Z,36.73
2018-05-09T23:10:16.629Z,41.77
2018-05-09T23:12:44.094Z,49.90
2018-05-09T23:15:11.558Z,37.23
2018-05-09T23:17:39.039Z,43.63
2018-05-09T23:20:06.490Z,41.63
2018-05-09T23:22:33.955Z,35.97
2018-05-09T23:25:01.448Z,36.90
2018-05-09T23:27:28.913Z,45.13
2018-05-09T23:29:56.374Z,32.87
2018-05-09T23:32:23.864Z,38.57
2018-05-09T23:34:51.329Z,47.40
2018-05-09T23:37:18.797Z,44.83
2018-05-09T23:39:46.271Z,36.97
2018-05-09T23:42:13.731Z,46.43
2018-05-09T23:44:41.256Z,44.37
2018-05-09T23:47:08.714Z,39.00
2018-05-09T23:49:36.174Z,39.77
2018-05-09T23:52:03.664Z,53.20
2018-05-09T23:54:31.130Z,38.60
2018-05-09T23:56:58.623Z,36.17
2018-05-09T23:59:26.103Z,49.37
